sensor_id;sensor_type;location;lat;lon;timestamp;P1;durP1;ratioP1;P2;durP2;ratioP2
64938;SDS011;51453;47.738;7.420;2023-06-22T00:00:51;17.38;;;12.45;;
64938;SDS011;51453;47.738;7.420;2023-06-22T00:03:18;16.45;;;13.38;;
64938;SDS011;51453;47.738;7.420;2023-06-22T00:05:45;16.77;;;13.27;;
64938;SDS011;51453;47.738;7.420;2023-06-22T00:08:12;15.60;;;12.20;;
64938;SDS011;51453;47.738;7.420;2023-06-22T00:10:37;16.23;;;12.77;;
64938;SDS011;51453;47.738;7.420;2023-06-22T00:13:03;18.63;;;13.65;;
64938;SDS011;51453;47.738;7.420;2023-06-22T00:15:30;21.80;;;14.10;;
64938;SDS011;51453;47.738;7.420;2023-06-22T00:17:55;22.80;;;15.02;;
64938;SDS011;51453;47.738;7.420;2023-06-22T00:20:22;25.17;;;15.70;;
64938;SDS011;51453;47.738;7.420;2023-06-22T00:22:52;22.40;;;16.50;;
64938;SDS011;51453;47.738;7.420;2023-06-22T00:25:21;20.95;;;16.15;;
64938;SDS011;51453;47.738;7.420;2023-06-22T00:27:47;18.65;;;14.95;;
64938;SDS011;51453;47.738;7.420;2023-06-22T00:30:14;19.40;;;14.75;;
64938;SDS011;51453;47.738;7.420;2023-06-22T00:32:44;20.87;;;15.67;;
64938;SDS011;51453;47.738;7.420;2023-06-22T00:35:11;19.50;;;16.77;;
64938;SDS011;51453;47.738;7.420;2023-06-22T00:37:38;23.45;;;15.38;;
64938;SDS011;51453;47.738;7.420;2023-06-22T00:40:07;19.77;;;16.70;;
64938;SDS011;51453;47.738;7.420;2023-06-22T00:42:37;20.87;;;15.70;;
64938;SDS011;51453;47.738;7.420;2023-06-22T00:45:04;22.20;;;16.77;;
64938;SDS011;51453;47.738;7.420;2023-06-22T00:47:31;19.90;;;16.27;;
64938;SDS011;51453;47.738;7.420;2023-06-22T00:49:57;20.20;;;14.98;;
64938;SDS011;51453;47.738;7.420;2023-06-22T00:52:23;19.25;;;14.30;;
64938;SDS011;51453;47.738;7.420;2023-06-22T00:54:54;19.80;;;13.73;;
64938;SDS011;51453;47.738;7.420;2023-06-22T00:57:21;17.23;;;14.20;;
64938;SDS011;51453;47.738;7.420;2023-06-22T00:59:50;22.50;;;15.10;;
64938;SDS011;51453;47.738;7.420;2023-06-22T01:02:16;19.65;;;14.45;;
64938;SDS011;51453;47.738;7.420;2023-06-22T01:04:42;17.60;;;13.27;;
64938;SDS011;51453;47.738;7.420;2023-06-22T01:10:21;19.67;;;14.77;;
64938;SDS011;51453;47.738;7.420;2023-06-22T01:12:55;22.83;;;15.05;;
64938;SDS011;51453;47.738;7.420;2023-06-22T01:15:30;17.35;;;13.77;;
64938;SDS011;51453;47.738;7.420;2023-06-22T01:18:01;17.60;;;13.43;;
64938;SDS011;51453;47.738;7.420;2023-06-22T01:20:30;18.48;;;14.02;;
64938;SDS011;51453;47.738;7.420;2023-06-22T01:25:50;17.77;;;12.23;;
64938;SDS011;51453;47.738;7.420;2023-06-22T01:31:12;16.55;;;13.50;;
64938;SDS011;51453;47.738;7.420;2023-06-22T01:33:41;19.80;;;13.80;;
64938;SDS011;51453;47.738;7.420;2023-06-22T01:36:08;20.20;;;14.05;;
64938;SDS011;51453;47.738;7.420;2023-06-22T01:38:36;17.05;;;13.25;;
64938;SDS011;51453;47.738;7.420;2023-06-22T01:41:03;19.92;;;13.13;;
64938;SDS011;51453;47.738;7.420;2023-06-22T01:43:29;14.70;;;12.52;;
64938;SDS011;51453;47.738;7.420;2023-06-22T01:45:55;18.27;;;12.25;;
64938;SDS011;51453;47.738;7.420;2023-06-22T01:48:23;17.30;;;12.15;;
64938;SDS011;51453;47.738;7.420;2023-06-22T01:50:49;16.17;;;12.30;;
64938;SDS011;51453;47.738;7.420;2023-06-22T01:53:14;21.65;;;12.10;;
64938;SDS011;51453;47.738;7.420;2023-06-22T01:55:40;16.17;;;11.63;;
64938;SDS011;51453;47.738;7.420;2023-06-22T01:58:06;17.38;;;12.02;;
64938;SDS011;51453;47.738;7.420;2023-06-22T02:00:32;14.13;;;11.32;;
64938;SDS011;51453;47.738;7.420;2023-06-22T02:03:03;17.05;;;11.43;;
64938;SDS011;51453;47.738;7.420;2023-06-22T02:05:36;13.05;;;11.57;;
64938;SDS011;51453;47.738;7.420;2023-06-22T02:08:08;15.70;;;11.15;;
64938;SDS011;51453;47.738;7.420;2023-06-22T02:10:41;15.40;;;11.80;;
64938;SDS011;51453;47.738;7.420;2023-06-22T02:13:08;15.13;;;11.63;;
64938;SDS011;51453;47.738;7.420;2023-06-22T02:15:36;16.20;;;11.48;;
64938;SDS011;51453;47.738;7.420;2023-06-22T02:18:02;14.02;;;11.88;;
64938;SDS011;51453;47.738;7.420;2023-06-22T02:20:27;13.10;;;11.70;;
64938;SDS011;51453;47.738;7.420;2023-06-22T02:22:53;17.05;;;12.23;;
64938;SDS011;51453;47.738;7.420;2023-06-22T02:25:19;21.45;;;13.52;;
64938;SDS011;51453;47.738;7.420;2023-06-22T02:27:45;15.05;;;12.85;;
64938;SDS011;51453;47.738;7.420;2023-06-22T02:30:11;16.52;;;13.50;;
64938;SDS011;51453;47.738;7.420;2023-06-22T02:32:37;18.98;;;14.07;;
64938;SDS011;51453;47.738;7.420;2023-06-22T02:35:07;17.60;;;13.70;;
64938;SDS011;51453;47.738;7.420;2023-06-22T02:37:35;18.92;;;13.52;;
64938;SDS011;51453;47.738;7.420;2023-06-22T02:40:04;21.48;;;13.73;;
64938;SDS011;51453;47.738;7.420;2023-06-22T02:42:32;16.25;;;13.13;;
64938;SDS011;51453;47.738;7.420;2023-06-22T02:44:58;15.60;;;12.95;;
64938;SDS011;51453;47.738;7.420;2023-06-22T02:47:23;15.60;;;13.02;;
64938;SDS011;51453;47.738;7.420;2023-06-22T02:49:49;17.02;;;13.70;;
64938;SDS011;51453;47.738;7.420;2023-06-22T02:52:15;17.65;;;14.13;;
64938;SDS011;51453;47.738;7.420;2023-06-22T02:54:40;19.00;;;14.45;;
64938;SDS011;51453;47.738;7.420;2023-06-22T02:57:06;18.33;;;14.65;;
64938;SDS011;51453;47.738;7.420;2023-06-22T02:59:32;19.83;;;14.68;;
64938;SDS011;51453;47.738;7.420;2023-06-22T03:01:57;19.27;;;14.63;;
64938;SDS011;51453;47.738;7.420;2023-06-22T03:04:23;16.63;;;13.15;;
64938;SDS011;51453;47.738;7.420;2023-06-22T03:06:48;21.48;;;14.95;;
64938;SDS011;51453;47.738;7.420;2023-06-22T03:09:16;19.85;;;14.85;;
64938;SDS011;51453;47.738;7.420;2023-06-22T03:11:42;18.83;;;14.30;;
64938;SDS011;51453;47.738;7.420;2023-06-22T03:14:08;19.63;;;15.00;;
64938;SDS011;51453;47.738;7.420;2023-06-22T03:16:33;19.45;;;14.68;;
64938;SDS011;51453;47.738;7.420;2023-06-22T03:18:59;19.45;;;15.25;;
64938;SDS011;51453;47.738;7.420;2023-06-22T03:21:26;19.63;;;15.30;;
64938;SDS011;51453;47.738;7.420;2023-06-22T03:23:53;19.33;;;14.07;;
64938;SDS011;51453;47.738;7.420;2023-06-22T03:26:19;23.17;;;16.05;;
64938;SDS011;51453;47.738;7.420;2023-06-22T03:28:45;19.25;;;15.70;;
64938;SDS011;51453;47.738;7.420;2023-06-22T03:31:11;22.17;;;15.85;;
64938;SDS011;51453;47.738;7.420;2023-06-22T03:33:36;21.65;;;17.05;;
64938;SDS011;51453;47.738;7.420;2023-06-22T03:36:02;20.08;;;16.20;;
64938;SDS011;51453;47.738;7.420;2023-06-22T03:38:28;20.58;;;15.98;;
64938;SDS011;51453;47.738;7.420;2023-06-22T03:40:54;20.98;;;17.05;;
64938;SDS011;51453;47.738;7.420;2023-06-22T03:43:19;21.40;;;17.15;;
64938;SDS011;51453;47.738;7.420;2023-06-22T03:45:45;22.98;;;16.52;;
64938;SDS011;51453;47.738;7.420;2023-06-22T03:48:11;22.13;;;17.00;;
64938;SDS011;51453;47.738;7.420;2023-06-22T03:50:37;23.23;;;17.50;;
64938;SDS011;51453;47.738;7.420;2023-06-22T03:53:03;22.58;;;17.38;;
64938;SDS011;51453;47.738;7.420;2023-06-22T03:55:28;21.05;;;17.55;;
64938;SDS011;51453;47.738;7.420;2023-06-22T03:57:55;23.70;;;18.38;;
64938;SDS011;51453;47.738;7.420;2023-06-22T04:00:22;25.05;;;18.27;;
64938;SDS011;51453;47.738;7.420;2023-06-22T04:02:48;23.02;;;18.00;;
64938;SDS011;51453;47.738;7.420;2023-06-22T04:05:14;20.17;;;16.52;;
64938;SDS011;51453;47.738;7.420;2023-06-22T04:07:42;26.75;;;17.45;;
64938;SDS011;51453;47.738;7.420;2023-06-22T04:10:08;23.45;;;17.50;;
64938;SDS011;51453;47.738;7.420;2023-06-22T04:12:34;24.08;;;16.52;;
64938;SDS011;51453;47.738;7.420;2023-06-22T04:14:59;20.90;;;15.90;;
64938;SDS011;51453;47.738;7.420;2023-06-22T04:17:25;25.08;;;17.70;;
64938;SDS011;51453;47.738;7.420;2023-06-22T04:19:51;22.30;;;16.58;;
64938;SDS011;51453;47.738;7.420;2023-06-22T04:22:17;24.70;;;17.67;;
64938;SDS011;51453;47.738;7.420;2023-06-22T04:24:43;19.92;;;15.60;;
64938;SDS011;51453;47.738;7.420;2023-06-22T04:27:09;22.35;;;15.63;;
64938;SDS011;51453;47.738;7.420;2023-06-22T04:29:35;21.45;;;15.70;;
64938;SDS011;51453;47.738;7.420;2023-06-22T04:32:01;21.42;;;16.15;;
64938;SDS011;51453;47.738;7.420;2023-06-22T04:34:31;22.42;;;15.90;;
64938;SDS011;51453;47.738;7.420;2023-06-22T04:36:57;21.23;;;16.10;;
64938;SDS011;51453;47.738;7.420;2023-06-22T04:39:22;19.05;;;15.48;;
64938;SDS011;51453;47.738;7.420;2023-06-22T04:41:49;20.75;;;14.93;;
64938;SDS011;51453;47.738;7.420;2023-06-22T04:44:19;20.40;;;14.35;;
64938;SDS011;51453;47.738;7.420;2023-06-22T04:46:51;19.85;;;13.50;;
64938;SDS011;51453;47.738;7.420;2023-06-22T04:49:24;16.45;;;13.60;;
64938;SDS011;51453;47.738;7.420;2023-06-22T04:51:58;19.80;;;14.45;;
64938;SDS011;51453;47.738;7.420;2023-06-22T04:54:24;19.98;;;13.77;;
64938;SDS011;51453;47.738;7.420;2023-06-22T04:56:50;19.60;;;14.25;;
64938;SDS011;51453;47.738;7.420;2023-06-22T04:59:21;18.35;;;14.77;;
64938;SDS011;51453;47.738;7.420;2023-06-22T05:01:47;19.52;;;14.38;;
64938;SDS011;51453;47.738;7.420;2023-06-22T05:04:13;18.15;;;14.13;;
64938;SDS011;51453;47.738;7.420;2023-06-22T05:06:38;18.90;;;14.27;;
64938;SDS011;51453;47.738;7.420;2023-06-22T05:09:04;18.45;;;14.88;;
64938;SDS011;51453;47.738;7.420;2023-06-22T05:11:31;18.73;;;14.02;;
64938;SDS011;51453;47.738;7.420;2023-06-22T05:13:56;18.48;;;14.50;;
64938;SDS011;51453;47.738;7.420;2023-06-22T05:16:22;17.38;;;14.02;;
64938;SDS011;51453;47.738;7.420;2023-06-22T05:18:50;17.63;;;13.68;;
64938;SDS011;51453;47.738;7.420;2023-06-22T05:21:17;18.65;;;14.18;;
64938;SDS011;51453;47.738;7.420;2023-06-22T05:23:42;16.73;;;13.30;;
64938;SDS011;51453;47.738;7.420;2023-06-22T05:26:08;17.67;;;13.68;;
64938;SDS011;51453;47.738;7.420;2023-06-22T05:28:35;14.68;;;12.95;;
64938;SDS011;51453;47.738;7.420;2023-06-22T05:31:00;20.67;;;14.05;;
64938;SDS011;51453;47.738;7.420;2023-06-22T05:33:26;17.42;;;14.07;;
64938;SDS011;51453;47.738;7.420;2023-06-22T05:35:52;14.45;;;12.35;;
64938;SDS011;51453;47.738;7.420;2023-06-22T05:38:17;19.90;;;12.82;;
64938;SDS011;51453;47.738;7.420;2023-06-22T05:40:43;15.82;;;12.45;;
64938;SDS011;51453;47.738;7.420;2023-06-22T05:43:09;16.40;;;12.85;;
64938;SDS011;51453;47.738;7.420;2023-06-22T05:45:34;18.75;;;12.63;;
64938;SDS011;51453;47.738;7.420;2023-06-22T05:48:00;14.95;;;12.55;;
64938;SDS011;51453;47.738;7.420;2023-06-22T05:50:26;15.93;;;12.52;;
64938;SDS011;51453;47.738;7.420;2023-06-22T05:52:52;17.48;;;13.40;;
64938;SDS011;51453;47.738;7.420;2023-06-22T05:55:17;14.88;;;12.57;;
64938;SDS011;51453;47.738;7.420;2023-06-22T05:57:44;18.10;;;13.50;;
64938;SDS011;51453;47.738;7.420;2023-06-22T06:00:09;16.75;;;12.52;;
64938;SDS011;51453;47.738;7.420;2023-06-22T06:02:36;19.05;;;12.40;;
64938;SDS011;51453;47.738;7.420;2023-06-22T06:05:08;17.55;;;11.63;;
64938;SDS011;51453;47.738;7.420;2023-06-22T06:07:41;17.23;;;12.25;;
64938;SDS011;51453;47.738;7.420;2023-06-22T06:10:08;15.30;;;12.00;;
64938;SDS011;51453;47.738;7.420;2023-06-22T06:12:34;17.30;;;13.10;;
64938;SDS011;51453;47.738;7.420;2023-06-22T06:15:00;17.67;;;13.55;;
64938;SDS011;51453;47.738;7.420;2023-06-22T06:17:26;17.05;;;12.82;;
64938;SDS011;51453;47.738;7.420;2023-06-22T06:19:52;14.77;;;11.50;;
64938;SDS011;51453;47.738;7.420;2023-06-22T06:22:18;15.93;;;12.07;;
64938;SDS011;51453;47.738;7.420;2023-06-22T06:24:45;17.20;;;12.48;;
64938;SDS011;51453;47.738;7.420;2023-06-22T06:27:11;16.83;;;12.73;;
64938;SDS011;51453;47.738;7.420;2023-06-22T06:29:36;17.27;;;11.95;;
64938;SDS011;51453;47.738;7.420;2023-06-22T06:32:02;15.60;;;11.90;;
64938;SDS011;51453;47.738;7.420;2023-06-22T06:34:28;16.70;;;13.07;;
64938;SDS011;51453;47.738;7.420;2023-06-22T06:36:54;25.10;;;15.57;;
64938;SDS011;51453;47.738;7.420;2023-06-22T06:39:19;21.48;;;15.70;;
64938;SDS011;51453;47.738;7.420;2023-06-22T06:41:45;18.05;;;14.73;;
64938;SDS011;51453;47.738;7.420;2023-06-22T06:44:11;24.23;;;16.88;;
64938;SDS011;51453;47.738;7.420;2023-06-22T06:46:36;21.95;;;14.95;;
64938;SDS011;51453;47.738;7.420;2023-06-22T06:49:03;19.25;;;14.30;;
64938;SDS011;51453;47.738;7.420;2023-06-22T06:51:28;21.20;;;14.63;;
64938;SDS011;51453;47.738;7.420;2023-06-22T06:53:54;21.35;;;14.50;;
64938;SDS011;51453;47.738;7.420;2023-06-22T06:56:20;20.50;;;15.13;;
64938;SDS011;51453;47.738;7.420;2023-06-22T06:58:45;19.77;;;15.00;;
64938;SDS011;51453;47.738;7.420;2023-06-22T07:01:12;20.88;;;15.38;;
64938;SDS011;51453;47.738;7.420;2023-06-22T07:03:38;26.65;;;16.17;;
64938;SDS011;51453;47.738;7.420;2023-06-22T07:06:03;28.08;;;17.27;;
64938;SDS011;51453;47.738;7.420;2023-06-22T07:08:29;22.45;;;15.15;;
64938;SDS011;51453;47.738;7.420;2023-06-22T07:10:55;19.27;;;14.93;;
64938;SDS011;51453;47.738;7.420;2023-06-22T07:13:20;22.63;;;14.77;;
64938;SDS011;51453;47.738;7.420;2023-06-22T07:15:46;21.23;;;13.45;;
64938;SDS011;51453;47.738;7.420;2023-06-22T07:18:12;20.83;;;14.32;;
64938;SDS011;51453;47.738;7.420;2023-06-22T07:20:37;19.05;;;13.90;;
64938;SDS011;51453;47.738;7.420;2023-06-22T07:23:04;21.67;;;14.20;;
64938;SDS011;51453;47.738;7.420;2023-06-22T07:25:30;18.85;;;13.75;;
64938;SDS011;51453;47.738;7.420;2023-06-22T07:28:00;20.42;;;14.15;;
64938;SDS011;51453;47.738;7.420;2023-06-22T07:30:26;17.15;;;12.57;;
64938;SDS011;51453;47.738;7.420;2023-06-22T07:32:52;15.90;;;13.20;;
64938;SDS011;51453;47.738;7.420;2023-06-22T07:35:18;24.30;;;14.73;;
64938;SDS011;51453;47.738;7.420;2023-06-22T07:37:44;18.02;;;13.00;;
64938;SDS011;51453;47.738;7.420;2023-06-22T07:40:09;23.77;;;14.13;;
64938;SDS011;51453;47.738;7.420;2023-06-22T07:42:35;18.67;;;14.20;;
64938;SDS011;51453;47.738;7.420;2023-06-22T07:45:02;16.73;;;13.20;;
64938;SDS011;51453;47.738;7.420;2023-06-22T07:47:28;21.90;;;14.32;;
64938;SDS011;51453;47.738;7.420;2023-06-22T07:49:54;17.10;;;13.55;;
64938;SDS011;51453;47.738;7.420;2023-06-22T07:52:22;20.63;;;14.80;;
64938;SDS011;51453;47.738;7.420;2023-06-22T07:54:48;18.25;;;13.35;;
64938;SDS011;51453;47.738;7.420;2023-06-22T07:57:14;21.58;;;14.20;;
64938;SDS011;51453;47.738;7.420;2023-06-22T07:59:40;19.83;;;13.30;;
64938;SDS011;51453;47.738;7.420;2023-06-22T08:02:05;20.38;;;13.05;;
64938;SDS011;51453;47.738;7.420;2023-06-22T08:04:33;23.85;;;14.85;;
64938;SDS011;51453;47.738;7.420;2023-06-22T08:07:00;20.88;;;15.45;;
64938;SDS011;51453;47.738;7.420;2023-06-22T08:09:27;19.63;;;14.52;;
64938;SDS011;51453;47.738;7.420;2023-06-22T08:11:54;20.17;;;14.13;;
64938;SDS011;51453;47.738;7.420;2023-06-22T08:14:21;20.10;;;13.32;;
64938;SDS011;51453;47.738;7.420;2023-06-22T08:16:48;21.77;;;12.85;;
64938;SDS011;51453;47.738;7.420;2023-06-22T08:19:13;19.67;;;12.07;;
64938;SDS011;51453;47.738;7.420;2023-06-22T08:21:39;20.38;;;12.05;;
64938;SDS011;51453;47.738;7.420;2023-06-22T08:24:05;19.60;;;10.52;;
64938;SDS011;51453;47.738;7.420;2023-06-22T08:26:32;15.27;;;9.32;;
64938;SDS011;51453;47.738;7.420;2023-06-22T08:29:01;15.93;;;9.63;;
64938;SDS011;51453;47.738;7.420;2023-06-22T08:31:27;14.90;;;9.10;;
64938;SDS011;51453;47.738;7.420;2023-06-22T08:33:53;16.52;;;8.88;;
64938;SDS011;51453;47.738;7.420;2023-06-22T08:36:18;16.65;;;9.43;;
64938;SDS011;51453;47.738;7.420;2023-06-22T08:38:44;17.52;;;8.55;;
64938;SDS011;51453;47.738;7.420;2023-06-22T08:41:10;14.50;;;8.20;;
64938;SDS011;51453;47.738;7.420;2023-06-22T08:43:35;16.48;;;7.82;;
64938;SDS011;51453;47.738;7.420;2023-06-22T08:46:01;14.60;;;7.80;;
64938;SDS011;51453;47.738;7.420;2023-06-22T08:48:27;17.13;;;7.57;;
64938;SDS011;51453;47.738;7.420;2023-06-22T08:50:53;20.70;;;8.77;;
64938;SDS011;51453;47.738;7.420;2023-06-22T08:53:19;15.38;;;8.10;;
64938;SDS011;51453;47.738;7.420;2023-06-22T08:55:45;17.15;;;7.68;;
64938;SDS011;51453;47.738;7.420;2023-06-22T08:58:10;12.02;;;7.43;;
64938;SDS011;51453;47.738;7.420;2023-06-22T09:00:36;12.77;;;6.78;;
64938;SDS011;51453;47.738;7.420;2023-06-22T09:03:02;18.58;;;8.60;;
64938;SDS011;51453;47.738;7.420;2023-06-22T09:05:28;12.73;;;7.80;;
64938;SDS011;51453;47.738;7.420;2023-06-22T09:07:55;13.38;;;7.90;;
64938;SDS011;51453;47.738;7.420;2023-06-22T09:10:21;14.23;;;8.10;;
64938;SDS011;51453;47.738;7.420;2023-06-22T09:12:47;14.02;;;7.72;;
64938;SDS011;51453;47.738;7.420;2023-06-22T09:15:13;20.48;;;8.52;;
64938;SDS011;51453;47.738;7.420;2023-06-22T09:17:39;18.25;;;8.38;;
64938;SDS011;51453;47.738;7.420;2023-06-22T09:20:06;18.88;;;9.18;;
64938;SDS011;51453;47.738;7.420;2023-06-22T09:22:32;17.98;;;9.18;;
64938;SDS011;51453;47.738;7.420;2023-06-22T09:24:59;17.23;;;8.82;;
64938;SDS011;51453;47.738;7.420;2023-06-22T09:27:25;19.33;;;10.45;;
64938;SDS011;51453;47.738;7.420;2023-06-22T09:29:50;18.40;;;10.05;;
64938;SDS011;51453;47.738;7.420;2023-06-22T09:32:16;13.70;;;9.68;;
64938;SDS011;51453;47.738;7.420;2023-06-22T09:34:41;16.77;;;9.43;;
64938;SDS011;51453;47.738;7.420;2023-06-22T09:37:07;15.32;;;9.23;;
64938;SDS011;51453;47.738;7.420;2023-06-22T09:39:33;18.02;;;9.50;;
64938;SDS011;51453;47.738;7.420;2023-06-22T09:41:59;19.58;;;9.88;;
64938;SDS011;51453;47.738;7.420;2023-06-22T09:44:25;18.80;;;10.20;;
64938;SDS011;51453;47.738;7.420;2023-06-22T09:46:51;20.48;;;9.68;;
64938;SDS011;51453;47.738;7.420;2023-06-22T09:49:17;17.13;;;9.90;;
64938;SDS011;51453;47.738;7.420;2023-06-22T09:51:42;31.33;;;11.63;;
64938;SDS011;51453;47.738;7.420;2023-06-22T09:54:08;18.95;;;9.88;;
64938;SDS011;51453;47.738;7.420;2023-06-22T09:56:33;16.73;;;10.00;;
64938;SDS011;51453;47.738;7.420;2023-06-22T09:58:59;16.98;;;9.45;;
64938;SDS011;51453;47.738;7.420;2023-06-22T10:01:25;16.83;;;10.02;;
64938;SDS011;51453;47.738;7.420;2023-06-22T10:03:52;16.25;;;10.20;;
64938;SDS011;51453;47.738;7.420;2023-06-22T10:06:21;19.27;;;11.65;;
64938;SDS011;51453;47.738;7.420;2023-06-22T10:08:47;17.35;;;10.30;;
64938;SDS011;51453;47.738;7.420;2023-06-22T10:11:15;19.98;;;11.50;;
64938;SDS011;51453;47.738;7.420;2023-06-22T10:13:41;17.13;;;11.18;;
64938;SDS011;51453;47.738;7.420;2023-06-22T10:16:06;20.00;;;11.88;;
64938;SDS011;51453;47.738;7.420;2023-06-22T10:18:32;18.55;;;11.23;;
64938;SDS011;51453;47.738;7.420;2023-06-22T10:20:58;19.50;;;12.45;;
64938;SDS011;51453;47.738;7.420;2023-06-22T10:23:23;21.48;;;13.23;;
64938;SDS011;51453;47.738;7.420;2023-06-22T10:25:49;17.30;;;12.40;;
64938;SDS011;51453;47.738;7.420;2023-06-22T10:28:15;21.35;;;13.25;;
64938;SDS011;51453;47.738;7.420;2023-06-22T10:30:41;18.10;;;12.38;;
64938;SDS011;51453;47.738;7.420;2023-06-22T10:33:07;24.75;;;12.98;;
64938;SDS011;51453;47.738;7.420;2023-06-22T10:35:33;19.73;;;12.05;;
64938;SDS011;51453;47.738;7.420;2023-06-22T10:37:59;21.45;;;12.23;;
64938;SDS011;51453;47.738;7.420;2023-06-22T10:40:25;18.30;;;12.05;;
64938;SDS011;51453;47.738;7.420;2023-06-22T10:42:51;17.73;;;11.40;;
64938;SDS011;51453;47.738;7.420;2023-06-22T10:45:16;20.23;;;10.95;;
64938;SDS011;51453;47.738;7.420;2023-06-22T10:47:42;17.85;;;10.18;;
64938;SDS011;51453;47.738;7.420;2023-06-22T10:50:08;15.90;;;10.35;;
64938;SDS011;51453;47.738;7.420;2023-06-22T10:52:34;18.58;;;10.27;;
64938;SDS011;51453;47.738;7.420;2023-06-22T10:54:59;16.15;;;10.52;;
64938;SDS011;51453;47.738;7.420;2023-06-22T10:57:25;20.88;;;10.63;;
64938;SDS011;51453;47.738;7.420;2023-06-22T10:59:51;17.38;;;10.23;;
64938;SDS011;51453;47.738;7.420;2023-06-22T11:02:16;16.75;;;10.02;;
64938;SDS011;51453;47.738;7.420;2023-06-22T11:04:42;21.33;;;10.15;;
64938;SDS011;51453;47.738;7.420;2023-06-22T11:07:08;20.45;;;12.05;;
64938;SDS011;51453;47.738;7.420;2023-06-22T11:09:34;19.70;;;11.27;;
64938;SDS011;51453;47.738;7.420;2023-06-22T11:12:00;14.75;;;9.85;;
64938;SDS011;51453;47.738;7.420;2023-06-22T11:14:25;24.30;;;12.02;;
64938;SDS011;51453;47.738;7.420;2023-06-22T11:16:51;18.67;;;11.05;;
64938;SDS011;51453;47.738;7.420;2023-06-22T11:19:17;18.33;;;11.55;;
64938;SDS011;51453;47.738;7.420;2023-06-22T11:21:43;19.95;;;10.55;;
64938;SDS011;51453;47.738;7.420;2023-06-22T11:24:09;25.30;;;11.32;;
64938;SDS011;51453;47.738;7.420;2023-06-22T11:26:34;18.55;;;10.00;;
64938;SDS011;51453;47.738;7.420;2023-06-22T11:29:00;19.30;;;10.50;;
64938;SDS011;51453;47.738;7.420;2023-06-22T11:31:30;21.48;;;9.63;;
64938;SDS011;51453;47.738;7.420;2023-06-22T11:33:56;18.38;;;9.65;;
64938;SDS011;51453;47.738;7.420;2023-06-22T11:36:22;19.73;;;10.38;;
64938;SDS011;51453;47.738;7.420;2023-06-22T11:38:47;19.02;;;11.02;;
64938;SDS011;51453;47.738;7.420;2023-06-22T11:41:13;18.38;;;10.75;;
64938;SDS011;51453;47.738;7.420;2023-06-22T11:43:38;20.20;;;8.90;;
64938;SDS011;51453;47.738;7.420;2023-06-22T11:46:04;13.07;;;7.10;;
64938;SDS011;51453;47.738;7.420;2023-06-22T11:48:30;16.98;;;8.23;;
64938;SDS011;51453;47.738;7.420;2023-06-22T11:50:56;16.27;;;9.88;;
64938;SDS011;51453;47.738;7.420;2023-06-22T11:53:23;17.58;;;10.00;;
64938;SDS011;51453;47.738;7.420;2023-06-22T11:55:50;20.15;;;9.82;;
64938;SDS011;51453;47.738;7.420;2023-06-22T11:58:15;18.60;;;10.45;;
64938;SDS011;51453;47.738;7.420;2023-06-22T12:00:41;17.75;;;10.55;;
64938;SDS011;51453;47.738;7.420;2023-06-22T12:03:07;18.23;;;10.20;;
64938;SDS011;51453;47.738;7.420;2023-06-22T12:05:34;20.55;;;12.77;;
64938;SDS011;51453;47.738;7.420;2023-06-22T12:07:59;19.67;;;10.95;;
64938;SDS011;51453;47.738;7.420;2023-06-22T12:10:25;19.00;;;11.15;;
64938;SDS011;51453;47.738;7.420;2023-06-22T12:12:53;19.40;;;12.15;;
64938;SDS011;51453;47.738;7.420;2023-06-22T12:15:19;19.98;;;12.20;;
64938;SDS011;51453;47.738;7.420;2023-06-22T12:17:45;24.88;;;12.48;;
64938;SDS011;51453;47.738;7.420;2023-06-22T12:20:13;16.75;;;11.88;;
64938;SDS011;51453;47.738;7.420;2023-06-22T12:22:38;26.77;;;13.27;;
64938;SDS011;51453;47.738;7.420;2023-06-22T12:25:04;21.70;;;11.10;;
64938;SDS011;51453;47.738;7.420;2023-06-22T12:27:30;16.55;;;10.82;;
64938;SDS011;51453;47.738;7.420;2023-06-22T12:29:56;22.23;;;11.10;;
64938;SDS011;51453;47.738;7.420;2023-06-22T12:32:21;19.73;;;11.18;;
64938;SDS011;51453;47.738;7.420;2023-06-22T12:34:47;18.33;;;10.25;;
64938;SDS011;51453;47.738;7.420;2023-06-22T12:37:13;19.35;;;11.43;;
64938;SDS011;51453;47.738;7.420;2023-06-22T12:39:40;17.15;;;12.10;;
64938;SDS011;51453;47.738;7.420;2023-06-22T12:42:06;19.05;;;11.15;;
64938;SDS011;51453;47.738;7.420;2023-06-22T12:44:33;18.02;;;10.23;;
64938;SDS011;51453;47.738;7.420;2023-06-22T12:46:59;20.38;;;12.20;;
64938;SDS011;51453;47.738;7.420;2023-06-22T12:49:25;17.95;;;10.85;;
64938;SDS011;51453;47.738;7.420;2023-06-22T12:51:51;17.08;;;9.05;;
64938;SDS011;51453;47.738;7.420;2023-06-22T12:54:16;13.57;;;8.70;;
64938;SDS011;51453;47.738;7.420;2023-06-22T12:56:42;16.52;;;8.73;;
64938;SDS011;51453;47.738;7.420;2023-06-22T12:59:10;17.60;;;8.63;;
64938;SDS011;51453;47.738;7.420;2023-06-22T13:01:36;12.57;;;7.13;;
64938;SDS011;51453;47.738;7.420;2023-06-22T13:04:02;16.23;;;7.97;;
64938;SDS011;51453;47.738;7.420;2023-06-22T13:06:28;13.43;;;8.98;;
64938;SDS011;51453;47.738;7.420;2023-06-22T13:08:53;13.25;;;8.93;;
64938;SDS011;51453;47.738;7.420;2023-06-22T13:11:19;17.40;;;9.05;;
64938;SDS011;51453;47.738;7.420;2023-06-22T13:13:45;17.13;;;8.48;;
64938;SDS011;51453;47.738;7.420;2023-06-22T13:16:11;12.40;;;7.82;;
64938;SDS011;51453;47.738;7.420;2023-06-22T13:18:37;15.48;;;7.28;;
64938;SDS011;51453;47.738;7.420;2023-06-22T13:21:03;13.75;;;7.30;;
64938;SDS011;51453;47.738;7.420;2023-06-22T13:23:29;16.65;;;6.15;;
64938;SDS011;51453;47.738;7.420;2023-06-22T13:25:55;75.88;;;11.68;;
64938;SDS011;51453;47.738;7.420;2023-06-22T13:28:20;25.48;;;6.93;;
64938;SDS011;51453;47.738;7.420;2023-06-22T13:30:46;13.95;;;7.75;;
64938;SDS011;51453;47.738;7.420;2023-06-22T13:33:16;19.75;;;8.85;;
64938;SDS011;51453;47.738;7.420;2023-06-22T13:35:42;23.30;;;9.07;;
64938;SDS011;51453;47.738;7.420;2023-06-22T13:38:08;13.60;;;8.82;;
64938;SDS011;51453;47.738;7.420;2023-06-22T13:40:34;19.15;;;8.55;;
64938;SDS011;51453;47.738;7.420;2023-06-22T13:43:00;18.20;;;7.65;;
64938;SDS011;51453;47.738;7.420;2023-06-22T13:45:26;15.20;;;6.45;;
64938;SDS011;51453;47.738;7.420;2023-06-22T13:47:51;15.65;;;6.55;;
64938;SDS011;51453;47.738;7.420;2023-06-22T13:50:17;15.00;;;7.22;;
64938;SDS011;51453;47.738;7.420;2023-06-22T13:52:43;21.77;;;8.07;;
64938;SDS011;51453;47.738;7.420;2023-06-22T13:55:09;15.93;;;6.90;;
64938;SDS011;51453;47.738;7.420;2023-06-22T13:57:35;15.40;;;7.10;;
64938;SDS011;51453;47.738;7.420;2023-06-22T14:00:01;20.45;;;6.65;;
64938;SDS011;51453;47.738;7.420;2023-06-22T14:02:28;18.92;;;7.13;;
64938;SDS011;51453;47.738;7.420;2023-06-22T14:04:54;16.40;;;7.18;;
64938;SDS011;51453;47.738;7.420;2023-06-22T14:07:19;23.80;;;7.20;;
64938;SDS011;51453;47.738;7.420;2023-06-22T14:09:46;30.35;;;7.95;;
64938;SDS011;51453;47.738;7.420;2023-06-22T14:12:12;15.73;;;6.18;;
64938;SDS011;51453;47.738;7.420;2023-06-22T14:14:37;14.60;;;5.93;;
64938;SDS011;51453;47.738;7.420;2023-06-22T14:17:03;21.10;;;6.53;;
64938;SDS011;51453;47.738;7.420;2023-06-22T14:19:29;11.57;;;5.32;;
64938;SDS011;51453;47.738;7.420;2023-06-22T14:21:55;16.85;;;5.80;;
64938;SDS011;51453;47.738;7.420;2023-06-22T14:24:22;14.18;;;5.55;;
64938;SDS011;51453;47.738;7.420;2023-06-22T14:26:47;17.23;;;5.80;;